Shorewood Hills, Wisconsin
Current Conditions -  °F | °C
As of 4:55 PM on Monday 24 Nov 2014 (Local Time) from KC29 Reporting Station
Overcast Overcast  
Wind Chill: 15°   Ceiling: 1100
Heat Index: 27°   Visibility: 1.5mi
Dew Point: 26°   Wind: 17mph
Humidity: 94%   Direction: 270°W
Pressure: 29.52"   Gusts: NA
Location:  43.0738°N, 89.4589°W
Report Text: KC29 242255Z AUTO 27015KT 1 1/2SM OVC011 M03/M04 A2952 RMK AO1 T10271036
Loading
Personal Weather Stations






























Interactive Weather Map New forecast layout! Learn more

10-Day Weather Forecast

Advertisements
Track Severe Weather on mobile